sensor_id;sensor_type;location;lat;lon;timestamp;pressure;altitude;pressure_sealevel;temperature;humidity
51715;BME280;39115;59.332;18.034;2024-01-07T00:00:04;102578.56;;;-10.36;61.47
51715;BME280;39115;59.332;18.034;2024-01-07T00:02:25;102580.25;;;-10.36;61.24
51715;BME280;39115;59.332;18.034;2024-01-07T00:04:46;102582.81;;;-10.36;61.31
51715;BME280;39115;59.332;18.034;2024-01-07T00:07:06;102593.97;;;-10.37;60.82
51715;BME280;39115;59.332;18.034;2024-01-07T00:09:27;102599.13;;;-10.37;61.17
51715;BME280;39115;59.332;18.034;2024-01-07T00:11:47;102594.84;;;-10.38;61.17
51715;BME280;39115;59.332;18.034;2024-01-07T00:14:08;102601.66;;;-10.39;61.24
51715;BME280;39115;59.332;18.034;2024-01-07T00:16:28;102603.38;;;-10.39;61.60
51715;BME280;39115;59.332;18.034;2024-01-07T00:18:49;102609.34;;;-10.40;61.44
51715;BME280;39115;59.332;18.034;2024-01-07T00:21:10;102606.78;;;-10.40;61.25
51715;BME280;39115;59.332;18.034;2024-01-07T00:23:30;102607.59;;;-10.41;61.12
51715;BME280;39115;59.332;18.034;2024-01-07T00:25:51;102609.31;;;-10.42;61.35
51715;BME280;39115;59.332;18.034;2024-01-07T00:28:11;102605.84;;;-10.42;61.31
51715;BME280;39115;59.332;18.034;2024-01-07T00:30:32;102594.63;;;-10.44;61.06
51715;BME280;39115;59.332;18.034;2024-01-07T00:32:52;102603.25;;;-10.44;61.38
51715;BME280;39115;59.332;18.034;2024-01-07T00:35:13;102610.09;;;-10.44;61.40
51715;BME280;39115;59.332;18.034;2024-01-07T00:37:33;102618.69;;;-10.44;61.21
51715;BME280;39115;59.332;18.034;2024-01-07T00:39:55;102618.63;;;-10.45;61.16
51715;BME280;39115;59.332;18.034;2024-01-07T00:42:15;102616.91;;;-10.46;61.21
51715;BME280;39115;59.332;18.034;2024-01-07T00:44:37;102614.38;;;-10.45;61.09
51715;BME280;39115;59.332;18.034;2024-01-07T00:46:58;102615.16;;;-10.47;61.18
51715;BME280;39115;59.332;18.034;2024-01-07T00:49:18;102615.16;;;-10.47;61.15
51715;BME280;39115;59.332;18.034;2024-01-07T00:51:39;102623.72;;;-10.49;61.42
51715;BME280;39115;59.332;18.034;2024-01-07T00:53:59;102628.84;;;-10.49;61.52
51715;BME280;39115;59.332;18.034;2024-01-07T00:56:20;102634.88;;;-10.48;61.30
51715;BME280;39115;59.332;18.034;2024-01-07T00:58:40;102627.09;;;-10.50;61.10
51715;BME280;39115;59.332;18.034;2024-01-07T01:01:01;102629.69;;;-10.50;61.31
51715;BME280;39115;59.332;18.034;2024-01-07T01:03:21;102631.41;;;-10.50;61.35
51715;BME280;39115;59.332;18.034;2024-01-07T01:05:42;102636.56;;;-10.50;60.98
51715;BME280;39115;59.332;18.034;2024-01-07T01:08:02;102634.78;;;-10.51;61.25
51715;BME280;39115;59.332;18.034;2024-01-07T01:10:23;102639.06;;;-10.52;61.17
51715;BME280;39115;59.332;18.034;2024-01-07T01:12:43;102633.88;;;-10.53;60.97
51715;BME280;39115;59.332;18.034;2024-01-07T01:15:04;102637.31;;;-10.53;61.26
51715;BME280;39115;59.332;18.034;2024-01-07T01:17:25;102651.03;;;-10.54;61.54
51715;BME280;39115;59.332;18.034;2024-01-07T01:19:45;102650.19;;;-10.53;61.49
51715;BME280;39115;59.332;18.034;2024-01-07T01:22:06;102653.59;;;-10.54;61.25
51715;BME280;39115;59.332;18.034;2024-01-07T01:24:26;102653.59;;;-10.54;61.18
51715;BME280;39115;59.332;18.034;2024-01-07T01:26:47;102657.00;;;-10.55;61.18
51715;BME280;39115;59.332;18.034;2024-01-07T01:29:07;102664.72;;;-10.55;61.17
51715;BME280;39115;59.332;18.034;2024-01-07T01:31:27;102662.09;;;-10.56;61.10
51715;BME280;39115;59.332;18.034;2024-01-07T01:33:48;102665.56;;;-10.56;61.28
51715;BME280;39115;59.332;18.034;2024-01-07T01:36:09;102667.22;;;-10.56;60.89
51715;BME280;39115;59.332;18.034;2024-01-07T01:38:30;102674.97;;;-10.56;61.13
51715;BME280;39115;59.332;18.034;2024-01-07T01:40:53;102674.91;;;-10.58;61.20
51715;BME280;39115;59.332;18.034;2024-01-07T01:43:25;102680.03;;;-10.59;61.25
51715;BME280;39115;59.332;18.034;2024-01-07T01:45:45;102674.91;;;-10.58;61.07
51715;BME280;39115;59.332;18.034;2024-01-07T01:48:06;102677.47;;;-10.59;61.59
51715;BME280;39115;59.332;18.034;2024-01-07T01:50:27;102671.41;;;-10.60;61.17
51715;BME280;39115;59.332;18.034;2024-01-07T01:52:48;102674.81;;;-10.61;61.12
51715;BME280;39115;59.332;18.034;2024-01-07T01:55:08;102679.09;;;-10.61;61.55
51715;BME280;39115;59.332;18.034;2024-01-07T01:57:32;102679.09;;;-10.61;61.04
51715;BME280;39115;59.332;18.034;2024-01-07T01:59:55;102686.00;;;-10.60;61.00
51715;BME280;39115;59.332;18.034;2024-01-07T02:02:16;102684.25;;;-10.61;61.21
51715;BME280;39115;59.332;18.034;2024-01-07T02:04:36;102690.22;;;-10.62;61.02
51715;BME280;39115;59.332;18.034;2024-01-07T02:06:57;102694.50;;;-10.63;61.26
51715;BME280;39115;59.332;18.034;2024-01-07T02:09:17;102688.47;;;-10.63;61.20
51715;BME280;39115;59.332;18.034;2024-01-07T02:11:38;102686.78;;;-10.63;61.27
51715;BME280;39115;59.332;18.034;2024-01-07T02:13:58;102694.44;;;-10.65;61.01
51715;BME280;39115;59.332;18.034;2024-01-07T02:16:19;102703.06;;;-10.64;61.31
51715;BME280;39115;59.332;18.034;2024-01-07T02:18:41;102693.59;;;-10.65;61.10
51715;BME280;39115;59.332;18.034;2024-01-07T02:21:02;102691.00;;;-10.65;61.15
51715;BME280;39115;59.332;18.034;2024-01-07T02:23:23;102688.41;;;-10.67;61.01
51715;BME280;39115;59.332;18.034;2024-01-07T02:25:43;102693.53;;;-10.67;61.23
51715;BME280;39115;59.332;18.034;2024-01-07T02:28:05;102692.72;;;-10.66;61.11
51715;BME280;39115;59.332;18.034;2024-01-07T02:30:25;102696.97;;;-10.66;61.09
51715;BME280;39115;59.332;18.034;2024-01-07T02:32:47;102700.38;;;-10.67;61.16
51715;BME280;39115;59.332;18.034;2024-01-07T02:35:08;102699.50;;;-10.68;61.16
51715;BME280;39115;59.332;18.034;2024-01-07T02:37:28;102706.34;;;-10.68;61.17
51715;BME280;39115;59.332;18.034;2024-01-07T02:39:49;102713.22;;;-10.69;61.02
51715;BME280;39115;59.332;18.034;2024-01-07T02:42:09;102713.22;;;-10.69;61.43
51715;BME280;39115;59.332;18.034;2024-01-07T02:44:30;102719.19;;;-10.70;61.17
51715;BME280;39115;59.332;18.034;2024-01-07T02:46:50;102715.75;;;-10.70;61.06
51715;BME280;39115;59.332;18.034;2024-01-07T02:49:11;102707.13;;;-10.71;61.43
51715;BME280;39115;59.332;18.034;2024-01-07T02:51:31;102712.28;;;-10.71;61.09
51715;BME280;39115;59.332;18.034;2024-01-07T02:53:52;102717.41;;;-10.71;61.23
51715;BME280;39115;59.332;18.034;2024-01-07T02:56:12;102723.41;;;-10.72;61.09
51715;BME280;39115;59.332;18.034;2024-01-07T02:58:33;102731.94;;;-10.73;61.23
51715;BME280;39115;59.332;18.034;2024-01-07T03:00:53;102730.25;;;-10.72;61.54
51715;BME280;39115;59.332;18.034;2024-01-07T03:03:14;102723.34;;;-10.73;61.54
51715;BME280;39115;59.332;18.034;2024-01-07T03:05:34;102728.50;;;-10.73;61.26
51715;BME280;39115;59.332;18.034;2024-01-07T03:07:55;102726.78;;;-10.73;61.37
51715;BME280;39115;59.332;18.034;2024-01-07T03:10:15;102731.91;;;-10.74;61.13
51715;BME280;39115;59.332;18.034;2024-01-07T03:12:36;102739.63;;;-10.74;61.09
51715;BME280;39115;59.332;18.034;2024-01-07T03:14:56;102741.31;;;-10.75;61.10
51715;BME280;39115;59.332;18.034;2024-01-07T03:17:16;102743.00;;;-10.75;60.93
51715;BME280;39115;59.332;18.034;2024-01-07T03:19:38;102748.16;;;-10.75;61.12
51715;BME280;39115;59.332;18.034;2024-01-07T03:21:58;102742.16;;;-10.76;61.18
51715;BME280;39115;59.332;18.034;2024-01-07T03:24:18;102747.25;;;-10.77;61.25
51715;BME280;39115;59.332;18.034;2024-01-07T03:26:39;102750.69;;;-10.77;61.08
51715;BME280;39115;59.332;18.034;2024-01-07T03:29:00;102745.53;;;-10.77;61.17
51715;BME280;39115;59.332;18.034;2024-01-07T03:31:21;102744.59;;;-10.79;61.09
51715;BME280;39115;59.332;18.034;2024-01-07T03:33:43;102750.66;;;-10.78;61.06
51715;BME280;39115;59.332;18.034;2024-01-07T03:36:08;102757.47;;;-10.79;61.07
51715;BME280;39115;59.332;18.034;2024-01-07T03:38:28;102754.03;;;-10.79;61.16
51715;BME280;39115;59.332;18.034;2024-01-07T03:40:49;102760.88;;;-10.80;61.13
51715;BME280;39115;59.332;18.034;2024-01-07T03:43:10;102767.72;;;-10.81;61.02
51715;BME280;39115;59.332;18.034;2024-01-07T03:45:30;102766.88;;;-10.81;61.04
51715;BME280;39115;59.332;18.034;2024-01-07T03:47:52;102774.59;;;-10.81;61.13
51715;BME280;39115;59.332;18.034;2024-01-07T03:50:13;102769.44;;;-10.81;61.20
51715;BME280;39115;59.332;18.034;2024-01-07T03:52:34;102771.13;;;-10.82;61.04
51715;BME280;39115;59.332;18.034;2024-01-07T03:54:55;102774.53;;;-10.83;61.17
51715;BME280;39115;59.332;18.034;2024-01-07T03:57:16;102767.69;;;-10.82;61.08
51715;BME280;39115;59.332;18.034;2024-01-07T03:59:36;102773.69;;;-10.82;61.20
51715;BME280;39115;59.332;18.034;2024-01-07T04:01:57;102771.09;;;-10.83;61.06
51715;BME280;39115;59.332;18.034;2024-01-07T04:04:18;102769.34;;;-10.84;60.95
51715;BME280;39115;59.332;18.034;2024-01-07T04:06:38;102777.06;;;-10.84;61.04
51715;BME280;39115;59.332;18.034;2024-01-07T04:08:59;102776.19;;;-10.85;61.30
51715;BME280;39115;59.332;18.034;2024-01-07T04:11:19;102783.03;;;-10.85;61.21
51715;BME280;39115;59.332;18.034;2024-01-07T04:13:40;102788.16;;;-10.85;60.74
51715;BME280;39115;59.332;18.034;2024-01-07T04:16:00;102791.56;;;-10.86;60.74
51715;BME280;39115;59.332;18.034;2024-01-07T04:18:20;102788.97;;;-10.86;60.86
51715;BME280;39115;59.332;18.034;2024-01-07T04:20:41;102795.03;;;-10.86;60.96
51715;BME280;39115;59.332;18.034;2024-01-07T04:23:02;102788.97;;;-10.86;61.07
51715;BME280;39115;59.332;18.034;2024-01-07T04:25:23;102794.13;;;-10.86;61.04
51715;BME280;39115;59.332;18.034;2024-01-07T04:27:43;102785.47;;;-10.88;61.09
51715;BME280;39115;59.332;18.034;2024-01-07T04:30:05;102787.22;;;-10.87;61.22
51715;BME280;39115;59.332;18.034;2024-01-07T04:32:26;102791.50;;;-10.88;61.15
51715;BME280;39115;59.332;18.034;2024-01-07T04:34:46;102789.75;;;-10.89;61.04
51715;BME280;39115;59.332;18.034;2024-01-07T04:37:07;102789.75;;;-10.89;61.16
51715;BME280;39115;59.332;18.034;2024-01-07T04:39:27;102788.91;;;-10.89;61.72
51715;BME280;39115;59.332;18.034;2024-01-07T04:41:48;102793.97;;;-10.91;61.55
51715;BME280;39115;59.332;18.034;2024-01-07T04:44:08;102798.31;;;-10.90;61.01
51715;BME280;39115;59.332;18.034;2024-01-07T04:46:29;102792.28;;;-10.90;61.16
51715;BME280;39115;59.332;18.034;2024-01-07T04:48:49;102787.97;;;-10.91;61.20
51715;BME280;39115;59.332;18.034;2024-01-07T04:51:10;102792.22;;;-10.92;61.08
51715;BME280;39115;59.332;18.034;2024-01-07T04:53:30;102800.84;;;-10.91;61.16
51715;BME280;39115;59.332;18.034;2024-01-07T04:55:50;102802.50;;;-10.92;61.16
51715;BME280;39115;59.332;18.034;2024-01-07T04:58:11;102802.50;;;-10.92;60.88
51715;BME280;39115;59.332;18.034;2024-01-07T05:00:31;102805.03;;;-10.93;61.71
51715;BME280;39115;59.332;18.034;2024-01-07T05:02:52;102814.50;;;-10.92;61.02
51715;BME280;39115;59.332;18.034;2024-01-07T05:05:12;102812.75;;;-10.93;61.20
51715;BME280;39115;59.332;18.034;2024-01-07T05:07:33;102820.47;;;-10.93;61.15
51715;BME280;39115;59.332;18.034;2024-01-07T05:09:53;102806.75;;;-10.94;61.10
51715;BME280;39115;59.332;18.034;2024-01-07T05:12:14;102810.16;;;-10.95;60.96
51715;BME280;39115;59.332;18.034;2024-01-07T05:14:34;102805.84;;;-10.94;61.01
51715;BME280;39115;59.332;18.034;2024-01-07T05:16:55;102811.81;;;-10.96;61.07
51715;BME280;39115;59.332;18.034;2024-01-07T05:19:15;102814.41;;;-10.96;61.07
51715;BME280;39115;59.332;18.034;2024-01-07T05:21:36;102813.53;;;-10.96;61.00
51715;BME280;39115;59.332;18.034;2024-01-07T05:23:56;102816.94;;;-10.97;60.99
51715;BME280;39115;59.332;18.034;2024-01-07T05:26:17;102812.69;;;-10.97;61.25
51715;BME280;39115;59.332;18.034;2024-01-07T05:28:37;102820.41;;;-10.97;60.99
51715;BME280;39115;59.332;18.034;2024-01-07T05:30:58;102823.78;;;-10.98;60.97
51715;BME280;39115;59.332;18.034;2024-01-07T05:33:18;102826.34;;;-10.98;60.97
51715;BME280;39115;59.332;18.034;2024-01-07T05:35:39;102833.19;;;-10.98;61.36
51715;BME280;39115;59.332;18.034;2024-01-07T05:37:59;102833.19;;;-10.98;61.14
51715;BME280;39115;59.332;18.034;2024-01-07T05:40:20;102832.31;;;-10.99;61.08
51715;BME280;39115;59.332;18.034;2024-01-07T05:42:40;102839.22;;;-10.98;60.78
51715;BME280;39115;59.332;18.034;2024-01-07T05:45:01;102840.00;;;-11.00;60.98
51715;BME280;39115;59.332;18.034;2024-01-07T05:47:23;102845.16;;;-11.00;60.77
51715;BME280;39115;59.332;18.034;2024-01-07T05:49:43;102846.88;;;-10.99;60.78
51715;BME280;39115;59.332;18.034;2024-01-07T05:52:04;102846.88;;;-10.99;60.67
51715;BME280;39115;59.332;18.034;2024-01-07T05:54:25;102848.56;;;-11.00;61.42
51715;BME280;39115;59.332;18.034;2024-01-07T05:56:45;102845.16;;;-11.00;61.23
51715;BME280;39115;59.332;18.034;2024-01-07T05:59:06;102850.28;;;-11.00;61.29
51715;BME280;39115;59.332;18.034;2024-01-07T06:01:26;102858.81;;;-11.01;60.82
51715;BME280;39115;59.332;18.034;2024-01-07T06:03:48;102854.53;;;-11.01;61.36
51715;BME280;39115;59.332;18.034;2024-01-07T06:06:08;102854.53;;;-11.01;61.36
51715;BME280;39115;59.332;18.034;2024-01-07T06:08:29;102853.69;;;-11.01;61.07
51715;BME280;39115;59.332;18.034;2024-01-07T06:10:49;102855.34;;;-11.02;61.00
51715;BME280;39115;59.332;18.034;2024-01-07T06:13:10;102862.22;;;-11.02;60.99
51715;BME280;39115;59.332;18.034;2024-01-07T06:15:30;102866.47;;;-11.03;61.00
51715;BME280;39115;59.332;18.034;2024-01-07T06:17:51;102865.66;;;-11.02;61.21
51715;BME280;39115;59.332;18.034;2024-01-07T06:20:12;102871.63;;;-11.03;60.93
51715;BME280;39115;59.332;18.034;2024-01-07T06:22:33;102869.03;;;-11.03;61.04
51715;BME280;39115;59.332;18.034;2024-01-07T06:24:53;102877.66;;;-11.02;61.18
51715;BME280;39115;59.332;18.034;2024-01-07T06:27:13;102875.91;;;-11.03;60.96
51715;BME280;39115;59.332;18.034;2024-01-07T06:29:34;102886.19;;;-11.03;60.69
51715;BME280;39115;59.332;18.034;2024-01-07T06:31:54;102881.03;;;-11.03;61.19
51715;BME280;39115;59.332;18.034;2024-01-07T06:34:15;102881.84;;;-11.04;61.01
51715;BME280;39115;59.332;18.034;2024-01-07T06:36:35;102876.72;;;-11.04;61.09
51715;BME280;39115;59.332;18.034;2024-01-07T06:38:56;102881.00;;;-11.05;60.69
51715;BME280;39115;59.332;18.034;2024-01-07T06:41:16;102886.16;;;-11.05;60.72
51715;BME280;39115;59.332;18.034;2024-01-07T06:43:37;102892.97;;;-11.05;60.74
51715;BME280;39115;59.332;18.034;2024-01-07T06:45:57;102890.41;;;-11.05;60.99
51715;BME280;39115;59.332;18.034;2024-01-07T06:48:18;102893.78;;;-11.06;61.03
51715;BME280;39115;59.332;18.034;2024-01-07T06:50:38;102900.63;;;-11.07;61.17
51715;BME280;39115;59.332;18.034;2024-01-07T06:52:58;102898.06;;;-11.07;61.07
51715;BME280;39115;59.332;18.034;2024-01-07T06:55:19;102906.66;;;-11.06;61.21
51715;BME280;39115;59.332;18.034;2024-01-07T06:57:39;102906.59;;;-11.08;61.08
51715;BME280;39115;59.332;18.034;2024-01-07T07:00:00;102911.75;;;-11.08;61.21
51715;BME280;39115;59.332;18.034;2024-01-07T07:02:20;102915.19;;;-11.07;60.93
51715;BME280;39115;59.332;18.034;2024-01-07T07:04:41;102916.03;;;-11.08;61.10
51715;BME280;39115;59.332;18.034;2024-01-07T07:07:02;102916.03;;;-11.08;60.92
51715;BME280;39115;59.332;18.034;2024-01-07T07:09:23;102920.28;;;-11.09;60.98
51715;BME280;39115;59.332;18.034;2024-01-07T07:11:43;102927.13;;;-11.09;60.68
51715;BME280;39115;59.332;18.034;2024-01-07T07:14:04;102937.44;;;-11.09;61.10
51715;BME280;39115;59.332;18.034;2024-01-07T07:16:26;102932.28;;;-11.09;61.14
51715;BME280;39115;59.332;18.034;2024-01-07T07:18:46;102939.09;;;-11.10;61.07
51715;BME280;39115;59.332;18.034;2024-01-07T07:21:07;102938.25;;;-11.10;60.62
51715;BME280;39115;59.332;18.034;2024-01-07T07:23:27;102951.09;;;-11.10;60.95
51715;BME280;39115;59.332;18.034;2024-01-07T07:25:48;102956.25;;;-11.10;60.68
51715;BME280;39115;59.332;18.034;2024-01-07T07:28:09;102950.22;;;-11.11;61.10
51715;BME280;39115;59.332;18.034;2024-01-07T07:30:29;102952.78;;;-11.11;60.77
51715;BME280;39115;59.332;18.034;2024-01-07T07:32:50;102956.19;;;-11.12;60.85
51715;BME280;39115;59.332;18.034;2024-01-07T07:35:10;102958.78;;;-11.12;61.24
51715;BME280;39115;59.332;18.034;2024-01-07T07:37:31;102963.03;;;-11.13;61.10
51715;BME280;39115;59.332;18.034;2024-01-07T07:39:51;102954.44;;;-11.13;60.98
51715;BME280;39115;59.332;18.034;2024-01-07T07:42:12;102967.31;;;-11.13;61.11
51715;BME280;39115;59.332;18.034;2024-01-07T07:44:32;102967.31;;;-11.13;61.04
51715;BME280;39115;59.332;18.034;2024-01-07T07:46:53;102966.41;;;-11.14;60.93
51715;BME280;39115;59.332;18.034;2024-01-07T07:49:13;102977.50;;;-11.15;60.99
51715;BME280;39115;59.332;18.034;2024-01-07T07:51:34;102980.97;;;-11.14;60.86
51715;BME280;39115;59.332;18.034;2024-01-07T07:53:54;102975.78;;;-11.16;60.75
51715;BME280;39115;59.332;18.034;2024-01-07T07:56:15;102982.66;;;-11.15;61.07
51715;BME280;39115;59.332;18.034;2024-01-07T07:58:35;102980.03;;;-11.16;60.60
51715;BME280;39115;59.332;18.034;2024-01-07T08:00:56;102980.94;;;-11.16;61.08
51715;BME280;39115;59.332;18.034;2024-01-07T08:03:16;102971.47;;;-11.17;61.29
51715;BME280;39115;59.332;18.034;2024-01-07T08:05:37;102980.00;;;-11.18;60.86
51715;BME280;39115;59.332;18.034;2024-01-07T08:07:57;102978.28;;;-11.17;61.17
51715;BME280;39115;59.332;18.034;2024-01-07T08:10:18;102982.56;;;-11.18;60.97
51715;BME280;39115;59.332;18.034;2024-01-07T08:12:38;102986.91;;;-11.17;60.83
51715;BME280;39115;59.332;18.034;2024-01-07T08:14:59;102990.28;;;-11.18;60.69
51715;BME280;39115;59.332;18.034;2024-01-07T08:17:19;102988.53;;;-11.19;60.92
51715;BME280;39115;59.332;18.034;2024-01-07T08:19:40;102988.53;;;-11.19;61.25
51715;BME280;39115;59.332;18.034;2024-01-07T08:22:01;103000.50;;;-11.19;60.71
51715;BME280;39115;59.332;18.034;2024-01-07T08:24:21;102999.63;;;-11.20;60.86
51715;BME280;39115;59.332;18.034;2024-01-07T08:26:42;103003.94;;;-11.19;60.78
51715;BME280;39115;59.332;18.034;2024-01-07T08:29:02;103009.91;;;-11.20;61.02
51715;BME280;39115;59.332;18.034;2024-01-07T08:31:23;103014.19;;;-11.20;61.13
51715;BME280;39115;59.332;18.034;2024-01-07T08:33:44;103012.44;;;-11.21;60.91
51715;BME280;39115;59.332;18.034;2024-01-07T08:36:05;103015.00;;;-11.21;61.07
51715;BME280;39115;59.332;18.034;2024-01-07T08:38:25;103019.25;;;-11.22;60.92
51715;BME280;39115;59.332;18.034;2024-01-07T08:40:46;103026.16;;;-11.21;61.13
51715;BME280;39115;59.332;18.034;2024-01-07T08:43:06;103028.72;;;-11.21;61.30
51715;BME280;39115;59.332;18.034;2024-01-07T08:45:27;103024.41;;;-11.22;60.62
51715;BME280;39115;59.332;18.034;2024-01-07T08:47:47;103032.94;;;-11.23;60.97
51715;BME280;39115;59.332;18.034;2024-01-07T08:50:08;103032.13;;;-11.22;61.14
51715;BME280;39115;59.332;18.034;2024-01-07T08:52:28;103039.84;;;-11.22;60.87
51715;BME280;39115;59.332;18.034;2024-01-07T08:54:49;103038.97;;;-11.22;61.32
51715;BME280;39115;59.332;18.034;2024-01-07T08:57:09;103037.22;;;-11.23;61.07
51715;BME280;39115;59.332;18.034;2024-01-07T08:59:30;103032.00;;;-11.25;60.85
51715;BME280;39115;59.332;18.034;2024-01-07T09:01:51;103036.34;;;-11.24;60.99
51715;BME280;39115;59.332;18.034;2024-01-07T09:04:12;103035.44;;;-11.24;61.00
51715;BME280;39115;59.332;18.034;2024-01-07T09:06:32;103037.16;;;-11.25;60.94
51715;BME280;39115;59.332;18.034;2024-01-07T09:08:53;103039.72;;;-11.25;61.39
51715;BME280;39115;59.332;18.034;2024-01-07T09:11:13;103034.59;;;-11.25;61.24
51715;BME280;39115;59.332;18.034;2024-01-07T09:13:34;103037.16;;;-11.25;60.95
51715;BME280;39115;59.332;18.034;2024-01-07T09:15:54;103036.25;;;-11.25;60.70
51715;BME280;39115;59.332;18.034;2024-01-07T09:18:15;103043.16;;;-11.24;61.09
51715;BME280;39115;59.332;18.034;2024-01-07T09:20:35;103053.41;;;-11.26;60.66
51715;BME280;39115;59.332;18.034;2024-01-07T09:22:55;103057.66;;;-11.26;60.71
51715;BME280;39115;59.332;18.034;2024-01-07T09:25:16;103063.69;;;-11.26;61.36
51715;BME280;39115;59.332;18.034;2024-01-07T09:27:36;103055.94;;;-11.27;61.11
51715;BME280;39115;59.332;18.034;2024-01-07T09:29:57;103065.38;;;-11.26;60.79
51715;BME280;39115;59.332;18.034;2024-01-07T09:32:17;103056.78;;;-11.27;61.22
51715;BME280;39115;59.332;18.034;2024-01-07T09:34:38;103064.50;;;-11.27;60.67
51715;BME280;39115;59.332;18.034;2024-01-07T09:36:58;103073.09;;;-11.26;60.61
51715;BME280;39115;59.332;18.034;2024-01-07T09:39:19;103077.41;;;-11.25;61.24
51715;BME280;39115;59.332;18.034;2024-01-07T09:41:41;103077.41;;;-11.25;60.78
51715;BME280;39115;59.332;18.034;2024-01-07T09:44:03;103073.09;;;-11.26;60.54
51715;BME280;39115;59.332;18.034;2024-01-07T09:46:24;103074.78;;;-11.27;60.97
51715;BME280;39115;59.332;18.034;2024-01-07T09:48:45;103073.09;;;-11.26;61.23
51715;BME280;39115;59.332;18.034;2024-01-07T09:51:07;103073.94;;;-11.27;60.79
51715;BME280;39115;59.332;18.034;2024-01-07T09:53:31;103073.97;;;-11.26;60.64
51715;BME280;39115;59.332;18.034;2024-01-07T09:56:19;103071.34;;;-11.27;60.86
51715;BME280;39115;59.332;18.034;2024-01-07T09:58:44;103068.78;;;-11.27;61.06
51715;BME280;39115;59.332;18.034;2024-01-07T10:01:08;103078.19;;;-11.28;61.09
51715;BME280;39115;59.332;18.034;2024-01-07T10:03:28;103080.75;;;-11.28;61.14
51715;BME280;39115;59.332;18.034;2024-01-07T10:05:49;103072.16;;;-11.29;61.14
51715;BME280;39115;59.332;18.034;2024-01-07T10:08:09;103071.34;;;-11.27;60.79
51715;BME280;39115;59.332;18.034;2024-01-07T10:10:30;103077.31;;;-11.29;60.73
51715;BME280;39115;59.332;18.034;2024-01-07T10:12:50;103073.03;;;-11.28;60.96
51715;BME280;39115;59.332;18.034;2024-01-07T10:15:13;103077.31;;;-11.29;60.56
51715;BME280;39115;59.332;18.034;2024-01-07T10:17:34;103078.19;;;-11.28;60.64
51715;BME280;39115;59.332;18.034;2024-01-07T10:19:54;103073.03;;;-11.28;60.57
51715;BME280;39115;59.332;18.034;2024-01-07T10:22:15;103081.66;;;-11.27;60.90
51715;BME280;39115;59.332;18.034;2024-01-07T10:24:38;103084.22;;;-11.27;61.20
51715;BME280;39115;59.332;18.034;2024-01-07T10:26:59;103085.03;;;-11.29;61.02
51715;BME280;39115;59.332;18.034;2024-01-07T10:29:19;103079.94;;;-11.27;61.22
51715;BME280;39115;59.332;18.034;2024-01-07T10:31:41;103083.31;;;-11.28;60.26
51715;BME280;39115;59.332;18.034;2024-01-07T10:34:03;103077.31;;;-11.29;60.87
51715;BME280;39115;59.332;18.034;2024-01-07T10:36:24;103081.66;;;-11.27;61.30
51715;BME280;39115;59.332;18.034;2024-01-07T10:38:44;103081.66;;;-11.27;60.73
51715;BME280;39115;59.332;18.034;2024-01-07T10:41:07;103084.22;;;-11.27;61.11
51715;BME280;39115;59.332;18.034;2024-01-07T10:43:30;103093.59;;;-11.28;60.95
51715;BME280;39115;59.332;18.034;2024-01-07T10:45:51;103093.59;;;-11.28;61.29
51715;BME280;39115;59.332;18.034;2024-01-07T10:48:11;103091.94;;;-11.27;60.61
51715;BME280;39115;59.332;18.034;2024-01-07T10:50:33;103109.03;;;-11.28;60.76
51715;BME280;39115;59.332;18.034;2024-01-07T10:52:58;103101.31;;;-11.28;60.86
51715;BME280;39115;59.332;18.034;2024-01-07T10:55:22;103097.94;;;-11.27;60.85
51715;BME280;39115;59.332;18.034;2024-01-07T10:57:47;103094.50;;;-11.27;60.93
51715;BME280;39115;59.332;18.034;2024-01-07T11:00:09;103102.13;;;-11.29;60.94
51715;BME280;39115;59.332;18.034;2024-01-07T11:02:30;103093.59;;;-11.28;61.09
51715;BME280;39115;59.332;18.034;2024-01-07T11:05:06;103097.94;;;-11.27;60.78
51715;BME280;39115;59.332;18.034;2024-01-07T11:07:35;103097.09;;;-11.27;60.59
51715;BME280;39115;59.332;18.034;2024-01-07T11:10:04;103104.78;;;-11.27;60.80
51715;BME280;39115;59.332;18.034;2024-01-07T11:12:26;103105.66;;;-11.27;60.64
51715;BME280;39115;59.332;18.034;2024-01-07T11:14:47;103097.09;;;-11.27;60.96
51715;BME280;39115;59.332;18.034;2024-01-07T11:17:13;103096.19;;;-11.28;60.27
51715;BME280;39115;59.332;18.034;2024-01-07T11:19:35;103103.09;;;-11.27;61.09
51715;BME280;39115;59.332;18.034;2024-01-07T11:22:21;103105.66;;;-11.27;61.10
51715;BME280;39115;59.332;18.034;2024-01-07T11:24:43;103099.56;;;-11.29;60.64
51715;BME280;39115;59.332;18.034;2024-01-07T11:27:03;103111.63;;;-11.28;60.60
51715;BME280;39115;59.332;18.034;2024-01-07T11:29:24;103112.50;;;-11.27;60.77
51715;BME280;39115;59.332;18.034;2024-01-07T11:31:45;103109.94;;;-11.27;60.63
51715;BME280;39115;59.332;18.034;2024-01-07T11:34:10;103110.81;;;-11.27;60.62
51715;BME280;39115;59.332;18.034;2024-01-07T11:36:31;103105.66;;;-11.27;60.51
51715;BME280;39115;59.332;18.034;2024-01-07T11:38:53;103095.38;;;-11.27;60.95
51715;BME280;39115;59.332;18.034;2024-01-07T11:41:15;103110.00;;;-11.26;60.86
51715;BME280;39115;59.332;18.034;2024-01-07T11:43:36;103110.00;;;-11.26;60.88
51715;BME280;39115;59.332;18.034;2024-01-07T11:45:56;103112.56;;;-11.26;61.08
51715;BME280;39115;59.332;18.034;2024-01-07T11:48:18;103113.44;;;-11.25;61.23
51715;BME280;39115;59.332;18.034;2024-01-07T11:50:39;103114.31;;;-11.25;60.92
51715;BME280;39115;59.332;18.034;2024-01-07T11:53:00;103111.75;;;-11.25;61.23
51715;BME280;39115;59.332;18.034;2024-01-07T11:55:21;103119.47;;;-11.25;61.01
51715;BME280;39115;59.332;18.034;2024-01-07T11:57:42;103121.22;;;-11.24;60.72